sensor_id;sensor_type;location;lat;lon;timestamp;P1;durP1;ratioP1;P2;durP2;ratioP2
55913;SDS011;58179;48.776;9.124;2022-12-18T00:01:36;86.93;;;40.60;;
55913;SDS011;58179;48.776;9.124;2022-12-18T00:04:03;99.22;;;45.55;;
55913;SDS011;58179;48.776;9.124;2022-12-18T00:06:30;104.47;;;47.25;;
55913;SDS011;58179;48.776;9.124;2022-12-18T00:08:58;94.97;;;44.33;;
55913;SDS011;58179;48.776;9.124;2022-12-18T00:11:26;103.38;;;45.50;;
55913;SDS011;58179;48.776;9.124;2022-12-18T00:13:56;93.65;;;43.38;;
55913;SDS011;58179;48.776;9.124;2022-12-18T00:16:24;95.22;;;43.40;;
55913;SDS011;58179;48.776;9.124;2022-12-18T00:18:52;107.53;;;47.92;;
55913;SDS011;58179;48.776;9.124;2022-12-18T00:21:20;118.07;;;50.83;;
55913;SDS011;58179;48.776;9.124;2022-12-18T00:23:47;111.25;;;49.15;;
55913;SDS011;58179;48.776;9.124;2022-12-18T00:26:15;114.20;;;49.70;;
55913;SDS011;58179;48.776;9.124;2022-12-18T00:28:46;120.18;;;52.55;;
55913;SDS011;58179;48.776;9.124;2022-12-18T00:31:14;115.75;;;51.70;;
55913;SDS011;58179;48.776;9.124;2022-12-18T00:33:43;119.75;;;53.45;;
55913;SDS011;58179;48.776;9.124;2022-12-18T00:36:10;114.30;;;50.13;;
55913;SDS011;58179;48.776;9.124;2022-12-18T00:38:38;119.57;;;50.55;;
55913;SDS011;58179;48.776;9.124;2022-12-18T00:41:04;102.50;;;46.95;;
55913;SDS011;58179;48.776;9.124;2022-12-18T00:43:32;104.22;;;47.05;;
55913;SDS011;58179;48.776;9.124;2022-12-18T00:45:58;109.90;;;49.22;;
55913;SDS011;58179;48.776;9.124;2022-12-18T00:48:25;114.43;;;49.88;;
55913;SDS011;58179;48.776;9.124;2022-12-18T00:50:51;118.65;;;50.97;;
55913;SDS011;58179;48.776;9.124;2022-12-18T00:53:17;116.72;;;51.80;;
55913;SDS011;58179;48.776;9.124;2022-12-18T00:55:43;118.65;;;50.20;;
55913;SDS011;58179;48.776;9.124;2022-12-18T00:58:10;115.50;;;50.10;;
55913;SDS011;58179;48.776;9.124;2022-12-18T01:00:38;127.83;;;51.80;;
55913;SDS011;58179;48.776;9.124;2022-12-18T01:03:04;124.13;;;54.47;;
55913;SDS011;58179;48.776;9.124;2022-12-18T01:05:32;121.90;;;53.25;;
55913;SDS011;58179;48.776;9.124;2022-12-18T01:07:58;129.18;;;53.83;;
55913;SDS011;58179;48.776;9.124;2022-12-18T01:10:24;122.47;;;52.13;;
55913;SDS011;58179;48.776;9.124;2022-12-18T01:12:51;120.22;;;50.85;;
55913;SDS011;58179;48.776;9.124;2022-12-18T01:15:17;102.13;;;45.13;;
55913;SDS011;58179;48.776;9.124;2022-12-18T01:17:44;91.03;;;40.33;;
55913;SDS011;58179;48.776;9.124;2022-12-18T01:20:10;102.03;;;45.10;;
55913;SDS011;58179;48.776;9.124;2022-12-18T01:22:38;100.28;;;43.03;;
55913;SDS011;58179;48.776;9.124;2022-12-18T01:25:05;87.93;;;40.17;;
55913;SDS011;58179;48.776;9.124;2022-12-18T01:27:33;100.22;;;44.80;;
55913;SDS011;58179;48.776;9.124;2022-12-18T01:29:59;100.32;;;43.30;;
55913;SDS011;58179;48.776;9.124;2022-12-18T01:32:25;81.47;;;37.28;;
55913;SDS011;58179;48.776;9.124;2022-12-18T01:34:51;89.80;;;40.37;;
55913;SDS011;58179;48.776;9.124;2022-12-18T01:37:17;79.25;;;36.28;;
55913;SDS011;58179;48.776;9.124;2022-12-18T01:39:44;78.95;;;36.65;;
55913;SDS011;58179;48.776;9.124;2022-12-18T01:42:11;84.63;;;38.15;;
55913;SDS011;58179;48.776;9.124;2022-12-18T01:44:50;78.78;;;37.55;;
55913;SDS011;58179;48.776;9.124;2022-12-18T01:47:23;78.28;;;36.55;;
55913;SDS011;58179;48.776;9.124;2022-12-18T01:49:53;77.10;;;37.33;;
55913;SDS011;58179;48.776;9.124;2022-12-18T01:52:20;91.47;;;40.23;;
55913;SDS011;58179;48.776;9.124;2022-12-18T01:54:49;86.70;;;38.65;;
55913;SDS011;58179;48.776;9.124;2022-12-18T01:57:17;82.22;;;37.90;;
55913;SDS011;58179;48.776;9.124;2022-12-18T01:59:43;86.32;;;38.88;;
55913;SDS011;58179;48.776;9.124;2022-12-18T02:02:14;84.43;;;39.15;;
55913;SDS011;58179;48.776;9.124;2022-12-18T02:04:41;75.82;;;35.03;;
55913;SDS011;58179;48.776;9.124;2022-12-18T02:07:09;71.83;;;34.57;;
55913;SDS011;58179;48.776;9.124;2022-12-18T02:09:59;70.93;;;33.45;;
55913;SDS011;58179;48.776;9.124;2022-12-18T02:12:33;76.78;;;36.63;;
55913;SDS011;58179;48.776;9.124;2022-12-18T02:15:09;76.50;;;36.55;;
55913;SDS011;58179;48.776;9.124;2022-12-18T02:17:43;82.38;;;38.00;;
55913;SDS011;58179;48.776;9.124;2022-12-18T02:20:16;75.50;;;36.90;;
55913;SDS011;58179;48.776;9.124;2022-12-18T02:22:53;80.70;;;37.55;;
55913;SDS011;58179;48.776;9.124;2022-12-18T02:25:40;78.63;;;36.75;;
55913;SDS011;58179;48.776;9.124;2022-12-18T02:28:40;70.72;;;34.13;;
55913;SDS011;58179;48.776;9.124;2022-12-18T02:31:11;74.40;;;35.58;;
55913;SDS011;58179;48.776;9.124;2022-12-18T02:33:41;70.05;;;33.28;;
55913;SDS011;58179;48.776;9.124;2022-12-18T02:36:09;69.38;;;32.80;;
55913;SDS011;58179;48.776;9.124;2022-12-18T02:38:37;70.15;;;33.50;;
55913;SDS011;58179;48.776;9.124;2022-12-18T02:41:06;77.57;;;35.23;;
55913;SDS011;58179;48.776;9.124;2022-12-18T02:43:32;72.45;;;33.95;;
55913;SDS011;58179;48.776;9.124;2022-12-18T02:45:58;81.35;;;37.35;;
55913;SDS011;58179;48.776;9.124;2022-12-18T02:48:46;76.13;;;35.40;;
55913;SDS011;58179;48.776;9.124;2022-12-18T02:51:14;71.43;;;33.63;;
55913;SDS011;58179;48.776;9.124;2022-12-18T02:53:49;72.43;;;33.75;;
55913;SDS011;58179;48.776;9.124;2022-12-18T02:56:23;65.07;;;30.80;;
55913;SDS011;58179;48.776;9.124;2022-12-18T02:58:58;70.88;;;33.58;;
55913;SDS011;58179;48.776;9.124;2022-12-18T03:01:30;68.75;;;31.67;;
55913;SDS011;58179;48.776;9.124;2022-12-18T03:04:04;76.78;;;34.72;;
55913;SDS011;58179;48.776;9.124;2022-12-18T03:06:37;64.35;;;29.77;;
55913;SDS011;58179;48.776;9.124;2022-12-18T03:09:09;60.83;;;27.60;;
55913;SDS011;58179;48.776;9.124;2022-12-18T03:11:41;65.72;;;31.00;;
55913;SDS011;58179;48.776;9.124;2022-12-18T03:14:34;65.88;;;29.90;;
55913;SDS011;58179;48.776;9.124;2022-12-18T03:17:05;64.00;;;29.58;;
55913;SDS011;58179;48.776;9.124;2022-12-18T03:19:37;63.13;;;28.65;;
55913;SDS011;58179;48.776;9.124;2022-12-18T03:22:05;61.40;;;29.23;;
55913;SDS011;58179;48.776;9.124;2022-12-18T03:24:34;69.57;;;32.38;;
55913;SDS011;58179;48.776;9.124;2022-12-18T03:27:06;77.20;;;34.10;;
55913;SDS011;58179;48.776;9.124;2022-12-18T03:29:40;81.25;;;36.40;;
55913;SDS011;58179;48.776;9.124;2022-12-18T03:32:11;82.97;;;36.47;;
55913;SDS011;58179;48.776;9.124;2022-12-18T03:34:46;84.57;;;37.20;;
55913;SDS011;58179;48.776;9.124;2022-12-18T03:37:15;86.55;;;37.85;;
55913;SDS011;58179;48.776;9.124;2022-12-18T03:39:41;86.35;;;37.13;;
55913;SDS011;58179;48.776;9.124;2022-12-18T03:42:10;89.63;;;38.47;;
55913;SDS011;58179;48.776;9.124;2022-12-18T03:44:42;87.35;;;38.60;;
55913;SDS011;58179;48.776;9.124;2022-12-18T03:47:15;90.35;;;39.53;;
55913;SDS011;58179;48.776;9.124;2022-12-18T03:49:53;86.82;;;39.65;;
55913;SDS011;58179;48.776;9.124;2022-12-18T03:52:26;84.80;;;39.53;;
55913;SDS011;58179;48.776;9.124;2022-12-18T03:54:58;90.75;;;39.83;;
55913;SDS011;58179;48.776;9.124;2022-12-18T03:57:28;91.50;;;40.85;;
55913;SDS011;58179;48.776;9.124;2022-12-18T03:59:57;92.00;;;39.83;;
55913;SDS011;58179;48.776;9.124;2022-12-18T04:02:27;94.78;;;40.50;;
55913;SDS011;58179;48.776;9.124;2022-12-18T04:04:56;97.07;;;42.33;;
55913;SDS011;58179;48.776;9.124;2022-12-18T04:07:26;92.15;;;40.50;;
55913;SDS011;58179;48.776;9.124;2022-12-18T04:09:53;92.10;;;40.63;;
55913;SDS011;58179;48.776;9.124;2022-12-18T04:12:23;85.80;;;38.13;;
55913;SDS011;58179;48.776;9.124;2022-12-18T04:14:52;92.90;;;40.33;;
55913;SDS011;58179;48.776;9.124;2022-12-18T04:17:18;86.85;;;39.85;;
55913;SDS011;58179;48.776;9.124;2022-12-18T04:19:44;92.23;;;40.33;;
55913;SDS011;58179;48.776;9.124;2022-12-18T04:22:10;85.85;;;39.28;;
55913;SDS011;58179;48.776;9.124;2022-12-18T04:24:36;93.05;;;40.65;;
55913;SDS011;58179;48.776;9.124;2022-12-18T04:27:02;85.57;;;38.55;;
55913;SDS011;58179;48.776;9.124;2022-12-18T04:29:29;86.07;;;37.95;;
55913;SDS011;58179;48.776;9.124;2022-12-18T04:31:56;89.50;;;38.75;;
55913;SDS011;58179;48.776;9.124;2022-12-18T04:34:22;86.93;;;37.95;;
55913;SDS011;58179;48.776;9.124;2022-12-18T04:36:48;91.15;;;39.85;;
55913;SDS011;58179;48.776;9.124;2022-12-18T04:39:14;83.25;;;38.55;;
55913;SDS011;58179;48.776;9.124;2022-12-18T04:41:42;88.00;;;39.42;;
55913;SDS011;58179;48.776;9.124;2022-12-18T04:44:08;88.15;;;39.30;;
55913;SDS011;58179;48.776;9.124;2022-12-18T04:46:34;82.35;;;36.65;;
55913;SDS011;58179;48.776;9.124;2022-12-18T04:49:01;90.03;;;38.63;;
55913;SDS011;58179;48.776;9.124;2022-12-18T04:51:27;92.63;;;39.10;;
55913;SDS011;58179;48.776;9.124;2022-12-18T04:53:53;86.27;;;38.43;;
55913;SDS011;58179;48.776;9.124;2022-12-18T04:56:19;90.25;;;40.00;;
55913;SDS011;58179;48.776;9.124;2022-12-18T04:58:46;87.35;;;39.85;;
55913;SDS011;58179;48.776;9.124;2022-12-18T05:01:12;82.88;;;36.55;;
55913;SDS011;58179;48.776;9.124;2022-12-18T05:03:41;76.90;;;35.80;;
55913;SDS011;58179;48.776;9.124;2022-12-18T05:06:09;76.10;;;34.45;;
55913;SDS011;58179;48.776;9.124;2022-12-18T05:08:35;67.35;;;30.20;;
55913;SDS011;58179;48.776;9.124;2022-12-18T05:11:01;65.70;;;31.50;;
55913;SDS011;58179;48.776;9.124;2022-12-18T05:13:29;70.20;;;31.80;;
55913;SDS011;58179;48.776;9.124;2022-12-18T05:15:59;76.20;;;34.83;;
55913;SDS011;58179;48.776;9.124;2022-12-18T05:18:26;83.55;;;38.67;;
55913;SDS011;58179;48.776;9.124;2022-12-18T05:20:52;77.78;;;35.78;;
55913;SDS011;58179;48.776;9.124;2022-12-18T05:23:20;79.65;;;34.55;;
55913;SDS011;58179;48.776;9.124;2022-12-18T05:25:50;77.22;;;33.95;;
55913;SDS011;58179;48.776;9.124;2022-12-18T05:28:17;74.05;;;33.97;;
55913;SDS011;58179;48.776;9.124;2022-12-18T05:30:44;69.07;;;32.30;;
55913;SDS011;58179;48.776;9.124;2022-12-18T05:33:14;88.15;;;39.58;;
55913;SDS011;58179;48.776;9.124;2022-12-18T05:35:40;86.30;;;39.47;;
55913;SDS011;58179;48.776;9.124;2022-12-18T05:38:06;84.40;;;38.37;;
55913;SDS011;58179;48.776;9.124;2022-12-18T05:40:33;87.25;;;38.15;;
55913;SDS011;58179;48.776;9.124;2022-12-18T05:42:59;76.55;;;35.28;;
55913;SDS011;58179;48.776;9.124;2022-12-18T05:45:25;71.72;;;32.28;;
55913;SDS011;58179;48.776;9.124;2022-12-18T05:47:51;73.57;;;33.80;;
55913;SDS011;58179;48.776;9.124;2022-12-18T05:50:16;67.43;;;30.45;;
55913;SDS011;58179;48.776;9.124;2022-12-18T05:52:42;71.15;;;33.42;;
55913;SDS011;58179;48.776;9.124;2022-12-18T05:55:08;66.35;;;30.35;;
55913;SDS011;58179;48.776;9.124;2022-12-18T05:57:35;65.47;;;29.98;;
55913;SDS011;58179;48.776;9.124;2022-12-18T06:00:02;58.70;;;28.08;;
55913;SDS011;58179;48.776;9.124;2022-12-18T06:02:28;58.47;;;27.60;;
55913;SDS011;58179;48.776;9.124;2022-12-18T06:04:54;56.67;;;26.87;;
55913;SDS011;58179;48.776;9.124;2022-12-18T06:07:20;59.85;;;27.42;;
55913;SDS011;58179;48.776;9.124;2022-12-18T06:09:46;67.82;;;31.23;;
55913;SDS011;58179;48.776;9.124;2022-12-18T06:12:12;78.07;;;34.35;;
55913;SDS011;58179;48.776;9.124;2022-12-18T06:14:39;70.30;;;32.40;;
55913;SDS011;58179;48.776;9.124;2022-12-18T06:17:05;75.47;;;34.90;;
55913;SDS011;58179;48.776;9.124;2022-12-18T06:19:31;83.40;;;36.63;;
55913;SDS011;58179;48.776;9.124;2022-12-18T06:21:57;80.75;;;36.88;;
55913;SDS011;58179;48.776;9.124;2022-12-18T06:24:23;87.75;;;35.72;;
55913;SDS011;58179;48.776;9.124;2022-12-18T06:26:49;84.27;;;36.30;;
55913;SDS011;58179;48.776;9.124;2022-12-18T06:29:15;74.47;;;34.40;;
55913;SDS011;58179;48.776;9.124;2022-12-18T06:31:43;84.15;;;37.22;;
55913;SDS011;58179;48.776;9.124;2022-12-18T06:34:09;83.15;;;36.40;;
55913;SDS011;58179;48.776;9.124;2022-12-18T06:36:34;84.33;;;37.57;;
55913;SDS011;58179;48.776;9.124;2022-12-18T06:39:00;85.82;;;37.30;;
55913;SDS011;58179;48.776;9.124;2022-12-18T06:41:26;74.72;;;34.15;;
55913;SDS011;58179;48.776;9.124;2022-12-18T06:43:52;81.00;;;35.57;;
55913;SDS011;58179;48.776;9.124;2022-12-18T06:46:18;85.47;;;36.10;;
55913;SDS011;58179;48.776;9.124;2022-12-18T06:48:47;76.70;;;35.10;;
55913;SDS011;58179;48.776;9.124;2022-12-18T06:51:15;68.07;;;31.33;;
55913;SDS011;58179;48.776;9.124;2022-12-18T06:53:45;59.20;;;28.02;;
55913;SDS011;58179;48.776;9.124;2022-12-18T06:56:11;62.60;;;28.67;;
55913;SDS011;58179;48.776;9.124;2022-12-18T06:58:38;59.97;;;28.70;;
55913;SDS011;58179;48.776;9.124;2022-12-18T07:01:04;60.13;;;27.75;;
55913;SDS011;58179;48.776;9.124;2022-12-18T07:03:33;67.28;;;29.88;;
55913;SDS011;58179;48.776;9.124;2022-12-18T07:06:01;60.38;;;27.90;;
55913;SDS011;58179;48.776;9.124;2022-12-18T07:08:28;61.33;;;28.73;;
55913;SDS011;58179;48.776;9.124;2022-12-18T07:10:55;64.95;;;31.30;;
55913;SDS011;58179;48.776;9.124;2022-12-18T07:13:21;63.13;;;28.77;;
55913;SDS011;58179;48.776;9.124;2022-12-18T07:15:47;59.65;;;27.70;;
55913;SDS011;58179;48.776;9.124;2022-12-18T07:18:13;59.45;;;27.67;;
55913;SDS011;58179;48.776;9.124;2022-12-18T07:20:38;55.20;;;26.07;;
55913;SDS011;58179;48.776;9.124;2022-12-18T07:23:06;57.88;;;27.13;;
55913;SDS011;58179;48.776;9.124;2022-12-18T07:25:33;57.63;;;27.55;;
55913;SDS011;58179;48.776;9.124;2022-12-18T07:27:59;58.15;;;27.35;;
55913;SDS011;58179;48.776;9.124;2022-12-18T07:30:25;51.70;;;24.67;;
55913;SDS011;58179;48.776;9.124;2022-12-18T07:32:51;52.55;;;24.98;;
55913;SDS011;58179;48.776;9.124;2022-12-18T07:35:17;65.55;;;28.65;;
55913;SDS011;58179;48.776;9.124;2022-12-18T07:37:43;57.85;;;27.90;;
55913;SDS011;58179;48.776;9.124;2022-12-18T07:40:11;61.23;;;28.73;;
55913;SDS011;58179;48.776;9.124;2022-12-18T07:42:37;51.92;;;24.95;;
55913;SDS011;58179;48.776;9.124;2022-12-18T07:45:04;54.90;;;25.55;;
55913;SDS011;58179;48.776;9.124;2022-12-18T07:47:31;57.13;;;26.63;;
55913;SDS011;58179;48.776;9.124;2022-12-18T07:50:01;60.70;;;27.95;;
55913;SDS011;58179;48.776;9.124;2022-12-18T07:52:28;60.22;;;27.40;;
55913;SDS011;58179;48.776;9.124;2022-12-18T07:54:53;54.90;;;25.55;;
55913;SDS011;58179;48.776;9.124;2022-12-18T07:57:21;53.38;;;24.85;;
55913;SDS011;58179;48.776;9.124;2022-12-18T07:59:46;49.10;;;22.85;;
55913;SDS011;58179;48.776;9.124;2022-12-18T08:02:12;52.00;;;24.40;;
55913;SDS011;58179;48.776;9.124;2022-12-18T08:04:38;47.33;;;22.58;;
55913;SDS011;58179;48.776;9.124;2022-12-18T08:07:04;45.80;;;20.83;;
55913;SDS011;58179;48.776;9.124;2022-12-18T08:09:30;43.40;;;21.25;;
55913;SDS011;58179;48.776;9.124;2022-12-18T08:11:56;53.70;;;24.15;;
55913;SDS011;58179;48.776;9.124;2022-12-18T08:14:23;51.77;;;23.97;;
55913;SDS011;58179;48.776;9.124;2022-12-18T08:16:49;50.40;;;23.13;;
55913;SDS011;58179;48.776;9.124;2022-12-18T08:19:15;47.43;;;22.67;;
55913;SDS011;58179;48.776;9.124;2022-12-18T08:21:41;53.53;;;25.15;;
55913;SDS011;58179;48.776;9.124;2022-12-18T08:24:08;59.25;;;26.30;;
55913;SDS011;58179;48.776;9.124;2022-12-18T08:26:34;64.20;;;27.30;;
55913;SDS011;58179;48.776;9.124;2022-12-18T08:29:00;57.50;;;27.33;;
55913;SDS011;58179;48.776;9.124;2022-12-18T08:31:29;64.97;;;29.63;;
55913;SDS011;58179;48.776;9.124;2022-12-18T08:33:56;65.18;;;30.02;;
55913;SDS011;58179;48.776;9.124;2022-12-18T08:36:22;64.25;;;30.42;;
55913;SDS011;58179;48.776;9.124;2022-12-18T08:38:49;60.88;;;28.45;;
55913;SDS011;58179;48.776;9.124;2022-12-18T08:41:15;55.50;;;27.25;;
55913;SDS011;58179;48.776;9.124;2022-12-18T08:43:43;51.10;;;25.27;;
55913;SDS011;58179;48.776;9.124;2022-12-18T08:46:31;46.00;;;22.95;;
55913;SDS011;58179;48.776;9.124;2022-12-18T08:49:00;50.70;;;23.98;;
55913;SDS011;58179;48.776;9.124;2022-12-18T08:51:25;50.20;;;23.67;;
55913;SDS011;58179;48.776;9.124;2022-12-18T08:53:51;45.13;;;22.45;;
55913;SDS011;58179;48.776;9.124;2022-12-18T08:56:17;46.35;;;22.42;;
55913;SDS011;58179;48.776;9.124;2022-12-18T08:58:50;47.67;;;23.20;;
55913;SDS011;58179;48.776;9.124;2022-12-18T09:01:18;53.30;;;25.67;;
55913;SDS011;58179;48.776;9.124;2022-12-18T09:03:46;50.70;;;23.75;;
55913;SDS011;58179;48.776;9.124;2022-12-18T09:06:13;49.93;;;24.07;;
55913;SDS011;58179;48.776;9.124;2022-12-18T09:08:40;55.08;;;27.25;;
55913;SDS011;58179;48.776;9.124;2022-12-18T09:11:09;67.70;;;32.03;;
55913;SDS011;58179;48.776;9.124;2022-12-18T09:13:40;73.93;;;34.88;;
55913;SDS011;58179;48.776;9.124;2022-12-18T09:16:06;95.07;;;46.47;;
55913;SDS011;58179;48.776;9.124;2022-12-18T09:18:32;85.90;;;41.50;;
55913;SDS011;58179;48.776;9.124;2022-12-18T09:20:59;79.77;;;38.60;;
55913;SDS011;58179;48.776;9.124;2022-12-18T09:23:31;70.47;;;34.55;;
55913;SDS011;58179;48.776;9.124;2022-12-18T09:25:58;61.43;;;30.23;;
55913;SDS011;58179;48.776;9.124;2022-12-18T09:28:24;57.58;;;29.35;;
55913;SDS011;58179;48.776;9.124;2022-12-18T09:30:50;58.05;;;28.02;;
55913;SDS011;58179;48.776;9.124;2022-12-18T09:33:16;60.70;;;30.88;;
55913;SDS011;58179;48.776;9.124;2022-12-18T09:35:43;63.57;;;31.33;;
55913;SDS011;58179;48.776;9.124;2022-12-18T09:38:12;55.35;;;27.70;;
55913;SDS011;58179;48.776;9.124;2022-12-18T09:40:41;58.38;;;30.15;;
55913;SDS011;58179;48.776;9.124;2022-12-18T09:43:13;64.18;;;33.88;;
55913;SDS011;58179;48.776;9.124;2022-12-18T09:45:43;68.50;;;37.15;;
55913;SDS011;58179;48.776;9.124;2022-12-18T09:48:15;71.10;;;37.70;;
55913;SDS011;58179;48.776;9.124;2022-12-18T09:50:48;73.68;;;38.90;;
55913;SDS011;58179;48.776;9.124;2022-12-18T09:53:17;65.10;;;30.67;;
55913;SDS011;58179;48.776;9.124;2022-12-18T09:55:48;59.40;;;31.30;;
55913;SDS011;58179;48.776;9.124;2022-12-18T09:58:19;64.07;;;32.70;;
55913;SDS011;58179;48.776;9.124;2022-12-18T10:00:52;58.00;;;29.75;;
55913;SDS011;58179;48.776;9.124;2022-12-18T10:03:18;74.25;;;34.75;;
55913;SDS011;58179;48.776;9.124;2022-12-18T10:05:46;71.07;;;36.55;;
55913;SDS011;58179;48.776;9.124;2022-12-18T10:08:27;53.47;;;30.10;;
55913;SDS011;58179;48.776;9.124;2022-12-18T10:11:12;47.33;;;26.83;;
55913;SDS011;58179;48.776;9.124;2022-12-18T10:13:54;47.50;;;28.00;;
55913;SDS011;58179;48.776;9.124;2022-12-18T10:16:25;47.55;;;28.38;;
55913;SDS011;58179;48.776;9.124;2022-12-18T10:19:03;40.28;;;25.27;;
55913;SDS011;58179;48.776;9.124;2022-12-18T10:21:48;44.05;;;26.77;;
55913;SDS011;58179;48.776;9.124;2022-12-18T10:24:23;45.30;;;26.67;;
55913;SDS011;58179;48.776;9.124;2022-12-18T10:26:59;47.63;;;28.52;;
55913;SDS011;58179;48.776;9.124;2022-12-18T10:29:38;41.75;;;26.02;;
55913;SDS011;58179;48.776;9.124;2022-12-18T10:32:06;40.70;;;25.48;;
55913;SDS011;58179;48.776;9.124;2022-12-18T10:34:37;37.43;;;22.93;;
55913;SDS011;58179;48.776;9.124;2022-12-18T10:37:03;42.20;;;25.35;;
55913;SDS011;58179;48.776;9.124;2022-12-18T10:39:39;35.85;;;21.95;;
55913;SDS011;58179;48.776;9.124;2022-12-18T10:42:09;45.22;;;26.60;;
55913;SDS011;58179;48.776;9.124;2022-12-18T10:44:40;38.95;;;22.33;;
55913;SDS011;58179;48.776;9.124;2022-12-18T10:47:06;41.85;;;23.42;;
55913;SDS011;58179;48.776;9.124;2022-12-18T10:49:41;36.58;;;21.52;;
55913;SDS011;58179;48.776;9.124;2022-12-18T10:52:14;46.97;;;25.98;;
55913;SDS011;58179;48.776;9.124;2022-12-18T10:54:48;46.45;;;24.83;;
55913;SDS011;58179;48.776;9.124;2022-12-18T10:57:17;50.08;;;26.75;;
55913;SDS011;58179;48.776;9.124;2022-12-18T10:59:56;51.80;;;27.85;;
55913;SDS011;58179;48.776;9.124;2022-12-18T11:02:29;46.17;;;25.45;;
55913;SDS011;58179;48.776;9.124;2022-12-18T11:05:00;53.17;;;29.02;;
55913;SDS011;58179;48.776;9.124;2022-12-18T11:07:31;44.85;;;25.63;;
55913;SDS011;58179;48.776;9.124;2022-12-18T11:10:16;42.03;;;23.83;;
55913;SDS011;58179;48.776;9.124;2022-12-18T11:12:44;48.00;;;26.27;;
55913;SDS011;58179;48.776;9.124;2022-12-18T11:15:13;47.70;;;26.40;;
55913;SDS011;58179;48.776;9.124;2022-12-18T11:17:43;44.60;;;24.83;;
55913;SDS011;58179;48.776;9.124;2022-12-18T11:20:19;48.13;;;27.67;;
55913;SDS011;58179;48.776;9.124;2022-12-18T11:22:55;44.40;;;25.20;;
55913;SDS011;58179;48.776;9.124;2022-12-18T11:25:27;43.08;;;26.02;;
55913;SDS011;58179;48.776;9.124;2022-12-18T11:27:56;41.47;;;23.90;;
55913;SDS011;58179;48.776;9.124;2022-12-18T11:30:31;46.45;;;25.80;;
55913;SDS011;58179;48.776;9.124;2022-12-18T11:33:03;42.35;;;23.33;;
55913;SDS011;58179;48.776;9.124;2022-12-18T11:35:39;46.90;;;26.13;;
55913;SDS011;58179;48.776;9.124;2022-12-18T11:38:17;44.25;;;24.42;;
55913;SDS011;58179;48.776;9.124;2022-12-18T11:40:51;44.38;;;24.23;;
55913;SDS011;58179;48.776;9.124;2022-12-18T11:43:25;52.80;;;27.70;;
55913;SDS011;58179;48.776;9.124;2022-12-18T11:45:55;56.10;;;29.08;;
55913;SDS011;58179;48.776;9.124;2022-12-18T11:48:28;54.28;;;29.98;;
55913;SDS011;58179;48.776;9.124;2022-12-18T11:50:59;50.70;;;28.67;;
55913;SDS011;58179;48.776;9.124;2022-12-18T11:53:29;48.63;;;26.53;;
55913;SDS011;58179;48.776;9.124;2022-12-18T11:55:58;52.03;;;28.73;;
55913;SDS011;58179;48.776;9.124;2022-12-18T11:58:43;60.80;;;32.90;;
55913;SDS011;58179;48.776;9.124;2022-12-18T12:01:15;50.80;;;28.53;;
55913;SDS011;58179;48.776;9.124;2022-12-18T12:06:57;59.97;;;32.63;;
55913;SDS011;58179;48.776;9.124;2022-12-18T12:09:33;63.08;;;34.83;;
55913;SDS011;58179;48.776;9.124;2022-12-18T12:12:17;75.25;;;37.90;;
55913;SDS011;58179;48.776;9.124;2022-12-18T12:15:12;65.15;;;36.72;;
55913;SDS011;58179;48.776;9.124;2022-12-18T12:17:49;69.13;;;37.30;;
55913;SDS011;58179;48.776;9.124;2022-12-18T12:20:22;73.97;;;40.10;;
55913;SDS011;58179;48.776;9.124;2022-12-18T12:23:02;75.72;;;38.95;;
55913;SDS011;58179;48.776;9.124;2022-12-18T12:25:39;59.90;;;33.85;;
55913;SDS011;58179;48.776;9.124;2022-12-18T12:28:15;55.43;;;30.80;;
55913;SDS011;58179;48.776;9.124;2022-12-18T12:30:54;52.53;;;30.35;;
55913;SDS011;58179;48.776;9.124;2022-12-18T12:33:33;58.08;;;32.03;;
55913;SDS011;58179;48.776;9.124;2022-12-18T12:36:13;58.33;;;32.20;;
55913;SDS011;58179;48.776;9.124;2022-12-18T12:38:48;62.78;;;33.78;;
55913;SDS011;58179;48.776;9.124;2022-12-18T12:41:20;58.30;;;31.60;;
55913;SDS011;58179;48.776;9.124;2022-12-18T12:44:13;73.85;;;37.65;;
55913;SDS011;58179;48.776;9.124;2022-12-18T12:46:43;85.50;;;42.47;;
55913;SDS011;58179;48.776;9.124;2022-12-18T12:49:11;80.45;;;41.53;;
55913;SDS011;58179;48.776;9.124;2022-12-18T12:51:40;67.63;;;36.20;;
55913;SDS011;58179;48.776;9.124;2022-12-18T12:54:11;63.40;;;33.88;;
55913;SDS011;58179;48.776;9.124;2022-12-18T12:56:44;59.60;;;31.23;;
55913;SDS011;58179;48.776;9.124;2022-12-18T12:59:19;65.53;;;32.95;;
55913;SDS011;58179;48.776;9.124;2022-12-18T13:01:58;65.45;;;35.42;;
55913;SDS011;58179;48.776;9.124;2022-12-18T13:04:31;82.55;;;42.40;;
55913;SDS011;58179;48.776;9.124;2022-12-18T13:07:03;73.55;;;38.03;;
55913;SDS011;58179;48.776;9.124;2022-12-18T13:12:57;83.63;;;42.78;;
55913;SDS011;58179;48.776;9.124;2022-12-18T13:15:28;67.77;;;37.13;;
55913;SDS011;58179;48.776;9.124;2022-12-18T13:18:09;59.55;;;33.78;;
55913;SDS011;58179;48.776;9.124;2022-12-18T13:20:45;61.75;;;32.67;;
55913;SDS011;58179;48.776;9.124;2022-12-18T13:23:28;65.35;;;33.92;;
55913;SDS011;58179;48.776;9.124;2022-12-18T13:28:58;77.43;;;39.40;;
55913;SDS011;58179;48.776;9.124;2022-12-18T13:34:45;69.40;;;35.70;;
55913;SDS011;58179;48.776;9.124;2022-12-18T13:43:34;92.35;;;43.75;;
55913;SDS011;58179;48.776;9.124;2022-12-18T13:46:05;72.57;;;35.92;;
55913;SDS011;58179;48.776;9.124;2022-12-18T13:48:55;86.15;;;39.63;;
55913;SDS011;58179;48.776;9.124;2022-12-18T13:51:25;92.57;;;42.47;;
55913;SDS011;58179;48.776;9.124;2022-12-18T13:53:53;95.32;;;43.35;;
55913;SDS011;58179;48.776;9.124;2022-12-18T13:56:23;92.78;;;42.05;;
55913;SDS011;58179;48.776;9.124;2022-12-18T14:01:48;83.25;;;38.10;;
55913;SDS011;58179;48.776;9.124;2022-12-18T14:04:24;91.03;;;41.25;;
55913;SDS011;58179;48.776;9.124;2022-12-18T14:06:53;90.28;;;41.72;;
55913;SDS011;58179;48.776;9.124;2022-12-18T14:09:25;100.35;;;42.90;;
55913;SDS011;58179;48.776;9.124;2022-12-18T14:11:54;102.10;;;42.53;;
55913;SDS011;58179;48.776;9.124;2022-12-18T14:14:43;100.35;;;41.80;;
55913;SDS011;58179;48.776;9.124;2022-12-18T14:17:12;102.95;;;44.13;;
55913;SDS011;58179;48.776;9.124;2022-12-18T14:19:45;95.47;;;41.77;;
55913;SDS011;58179;48.776;9.124;2022-12-18T14:22:15;90.30;;;40.17;;
55913;SDS011;58179;48.776;9.124;2022-12-18T14:24:43;95.50;;;39.67;;
55913;SDS011;58179;48.776;9.124;2022-12-18T14:29:54;112.80;;;47.40;;
55913;SDS011;58179;48.776;9.124;2022-12-18T14:32:20;105.00;;;43.50;;
55913;SDS011;58179;48.776;9.124;2022-12-18T14:34:48;97.68;;;41.47;;
55913;SDS011;58179;48.776;9.124;2022-12-18T14:37:16;115.25;;;46.55;;
55913;SDS011;58179;48.776;9.124;2022-12-18T14:39:52;114.60;;;45.30;;
55913;SDS011;58179;48.776;9.124;2022-12-18T14:42:23;105.75;;;42.15;;
55913;SDS011;58179;48.776;9.124;2022-12-18T14:45:03;99.30;;;39.42;;
55913;SDS011;58179;48.776;9.124;2022-12-18T14:48:05;108.13;;;41.77;;
55913;SDS011;58179;48.776;9.124;2022-12-18T14:50:33;99.75;;;38.03;;
55913;SDS011;58179;48.776;9.124;2022-12-18T14:53:00;126.10;;;47.40;;
55913;SDS011;58179;48.776;9.124;2022-12-18T14:55:26;139.63;;;50.95;;
55913;SDS011;58179;48.776;9.124;2022-12-18T14:57:52;121.83;;;44.77;;
55913;SDS011;58179;48.776;9.124;2022-12-18T15:00:21;138.82;;;51.45;;
55913;SDS011;58179;48.776;9.124;2022-12-18T15:02:51;149.70;;;52.28;;